createdAt,value
2023-11-28T00:00:40.377Z,39.58
2023-11-28T00:03:44.523Z,38.20
2023-11-28T00:06:49.663Z,45.60
2023-11-28T00:09:53.218Z,38.85
2023-11-28T00:12:57.819Z,39.50
2023-11-28T00:16:03.297Z,35.13
2023-11-28T00:19:08.200Z,40.15
2023-11-28T00:22:13.006Z,38.38
2023-11-28T00:25:19.357Z,42.22
2023-11-28T00:28:22.846Z,34.63
2023-11-28T00:31:26.595Z,33.30
2023-11-28T00:34:30.353Z,36.60
2023-11-28T00:37:35.188Z,34.58
2023-11-28T00:40:38.750Z,32.00
2023-11-28T00:43:42.417Z,38.05
2023-11-28T00:46:46.189Z,33.58
2023-11-28T00:49:49.805Z,32.10
2023-11-28T00:52:54.849Z,30.55
2023-11-28T00:55:58.232Z,30.58
2023-11-28T00:59:01.738Z,31.48
2023-11-28T01:02:06.670Z,37.58
2023-11-28T01:05:11.161Z,33.13
2023-11-28T01:08:16.025Z,31.08
2023-11-28T01:11:19.652Z,36.75
2023-11-28T01:14:23.070Z,33.75
2023-11-28T01:17:26.640Z,32.97
2023-11-28T01:20:30.274Z,34.45
2023-11-28T01:23:35.087Z,33.97
2023-11-28T01:26:38.565Z,34.50
2023-11-28T01:29:42.460Z,35.63
2023-11-28T01:32:45.960Z,35.65
2023-11-28T01:35:49.477Z,33.50
2023-11-28T01:38:54.248Z,30.75
2023-11-28T01:41:57.892Z,34.78
2023-11-28T01:45:01.376Z,42.60
2023-11-28T01:48:05.378Z,37.80
2023-11-28T01:51:10.443Z,37.63
2023-11-28T01:54:15.920Z,39.67
2023-11-28T01:57:20.057Z,35.97
2023-11-28T02:00:24.134Z,38.80
2023-11-28T02:03:34.939Z,39.67
2023-11-28T02:06:40.540Z,38.97
2023-11-28T02:09:47.894Z,34.58
2023-11-28T02:12:51.815Z,44.28
2023-11-28T02:15:55.917Z,39.47
2023-11-28T02:18:59.418Z,42.28
2023-11-28T02:22:04.285Z,49.10
2023-11-28T02:25:10.532Z,36.58
2023-11-28T02:28:19.218Z,53.67
2023-11-28T02:31:22.925Z,42.13
2023-11-28T02:34:26.466Z,41.20
2023-11-28T02:37:30.027Z,47.42
2023-11-28T02:40:33.678Z,47.55
2023-11-28T02:43:38.512Z,39.00
2023-11-28T02:46:43.577Z,37.33
2023-11-28T02:49:47.013Z,37.53
2023-11-28T02:52:51.372Z,39.40
2023-11-28T02:55:54.934Z,39.30
2023-11-28T02:58:59.851Z,39.63
2023-11-28T03:02:03.518Z,41.38
2023-11-28T03:05:08.477Z,35.05
2023-11-28T03:08:12.559Z,37.25
2023-11-28T03:11:16.189Z,37.67
2023-11-28T03:14:20.978Z,34.75
2023-11-28T03:17:24.504Z,36.53
2023-11-28T03:20:28.745Z,34.88
2023-11-28T03:23:32.104Z,37.97
2023-11-28T03:26:35.528Z,31.98
2023-11-28T03:29:41.114Z,34.30
2023-11-28T03:32:45.110Z,32.75
2023-11-28T03:35:48.674Z,34.80
2023-11-28T03:38:54.642Z,29.02
2023-11-28T03:41:58.034Z,34.13
2023-11-28T03:45:04.511Z,34.00
2023-11-28T03:48:07.985Z,39.90
2023-11-28T03:51:11.484Z,36.22
2023-11-28T03:54:14.952Z,31.85
2023-11-28T03:57:18.463Z,35.90
2023-11-28T04:00:23.888Z,40.08
2023-11-28T04:03:27.726Z,35.72
2023-11-28T04:06:31.301Z,42.45
2023-11-28T04:09:34.870Z,38.35
2023-11-28T04:12:38.765Z,32.55
2023-11-28T04:15:44.203Z,49.38
2023-11-28T04:18:51.426Z,40.03
2023-11-28T04:21:54.908Z,42.85
2023-11-28T04:24:58.441Z,47.50
2023-11-28T04:28:02.079Z,33.40
2023-11-28T04:34:38.145Z,35.08
2023-11-28T04:37:41.992Z,33.30
2023-11-28T04:40:45.454Z,41.83
2023-11-28T04:43:49.059Z,53.28
2023-11-28T04:46:52.883Z,61.65
2023-11-28T04:49:57.887Z,39.00
2023-11-28T04:53:01.395Z,37.17
2023-11-28T04:56:06.864Z,37.55
2023-11-28T04:59:11.739Z,42.67
2023-11-28T05:02:15.554Z,45.55
2023-11-28T05:05:21.421Z,36.83
2023-11-28T05:08:24.898Z,30.70
2023-11-28T05:11:28.423Z,46.28
2023-11-28T05:14:32.455Z,48.78
2023-11-28T05:17:36.257Z,40.63
2023-11-28T05:20:41.294Z,40.78
2023-11-28T05:23:44.765Z,44.97
2023-11-28T05:26:50.223Z,42.53
2023-11-28T05:29:54.313Z,43.33
2023-11-28T05:32:57.818Z,39.00
2023-11-28T05:36:07.057Z,52.88
2023-11-28T05:39:12.738Z,55.92
2023-11-28T05:42:16.252Z,66.57
2023-11-28T05:45:19.941Z,48.03
2023-11-28T05:48:24.956Z,45.38
2023-11-28T05:51:31.339Z,49.03
2023-11-28T05:54:34.902Z,52.47
2023-11-28T05:57:38.412Z,46.95
2023-11-28T06:00:43.094Z,54.33
2023-11-28T06:03:47.559Z,41.83
2023-11-28T06:06:52.516Z,50.90
2023-11-28T06:09:56.395Z,78.35
2023-11-28T06:13:00.063Z,46.30
2023-11-28T06:16:06.169Z,48.08
2023-11-28T06:19:11.181Z,43.88
2023-11-28T06:22:16.000Z,35.75
2023-11-28T06:25:19.529Z,56.20
2023-11-28T06:28:23.119Z,50.58
2023-11-28T06:31:26.831Z,53.10
2023-11-28T06:34:30.366Z,71.57
2023-11-28T06:37:36.935Z,53.90
2023-11-28T06:40:43.374Z,58.70
2023-11-28T06:43:47.410Z,35.20
2023-11-28T06:46:51.041Z,65.57
2023-11-28T06:49:54.599Z,71.13
2023-11-28T06:52:59.537Z,40.97
2023-11-28T06:56:03.776Z,46.47
2023-11-28T06:59:07.887Z,70.90
2023-11-28T07:02:11.691Z,44.35
2023-11-28T07:05:15.367Z,46.53
2023-11-28T07:08:20.546Z,42.25
2023-11-28T07:11:24.065Z,48.15
2023-11-28T07:14:27.520Z,50.22
2023-11-28T07:17:30.986Z,61.15
2023-11-28T07:20:34.543Z,54.08
2023-11-28T07:23:39.479Z,59.13
2023-11-28T07:26:50.270Z,52.33
2023-11-28T07:29:53.898Z,43.47
2023-11-28T07:32:57.498Z,45.40
2023-11-28T07:36:01.050Z,43.05
2023-11-28T07:39:05.973Z,37.10
2023-11-28T07:42:10.720Z,39.63
2023-11-28T07:45:16.118Z,54.67
2023-11-28T07:48:20.236Z,38.90
2023-11-28T07:51:24.353Z,36.30
2023-11-28T07:54:31.426Z,36.08
2023-11-28T07:57:38.788Z,34.27
2023-11-28T08:00:42.719Z,48.53
2023-11-28T08:03:46.457Z,39.05
2023-11-28T08:06:49.989Z,36.63
2023-11-28T08:09:56.918Z,33.13
2023-11-28T08:13:01.136Z,29.70
2023-11-28T08:16:05.480Z,25.20
2023-11-28T08:19:09.745Z,26.40
2023-11-28T08:22:14.349Z,23.15
2023-11-28T08:25:22.260Z,27.60
2023-11-28T08:28:26.032Z,26.13
2023-11-28T08:31:29.568Z,23.58
2023-11-28T08:34:33.585Z,27.30
2023-11-28T08:37:37.513Z,27.23
2023-11-28T08:40:43.104Z,23.70
2023-11-28T08:43:46.630Z,26.48
2023-11-28T08:46:50.342Z,27.20
2023-11-28T08:49:54.371Z,26.42
2023-11-28T08:52:58.007Z,24.55
2023-11-28T08:56:02.921Z,21.25
2023-11-28T08:59:06.699Z,20.90
2023-11-28T09:02:10.557Z,24.85
2023-11-28T09:05:15.814Z,22.05
2023-11-28T09:08:19.394Z,21.88
2023-11-28T09:11:27.153Z,19.08
2023-11-28T09:14:30.673Z,20.15
2023-11-28T09:17:34.506Z,20.27
2023-11-28T09:20:38.620Z,18.02
2023-11-28T09:23:42.258Z,20.83
2023-11-28T09:26:51.268Z,13.93
2023-11-28T09:29:55.008Z,15.95
2023-11-28T09:32:58.675Z,15.68
2023-11-28T09:36:02.297Z,14.45
2023-11-28T09:39:06.617Z,16.80
2023-11-28T09:42:13.362Z,12.85
2023-11-28T09:45:19.980Z,13.85
2023-11-28T09:48:24.077Z,12.90
2023-11-28T09:51:28.982Z,12.07
2023-11-28T09:54:33.762Z,12.30
2023-11-28T09:57:44.925Z,9.10
2023-11-28T10:00:50.013Z,9.07
2023-11-28T10:03:54.448Z,23.60
2023-11-28T10:07:02.492Z,58.13
2023-11-28T10:10:09.251Z,11.25
2023-11-28T10:13:14.938Z,18.77
2023-11-28T10:16:18.965Z,20.00
2023-11-28T10:19:23.227Z,8.15
2023-11-28T10:22:26.697Z,46.33
2023-11-28T10:25:30.726Z,13.45
2023-11-28T10:28:36.623Z,6.75
2023-11-28T10:34:36.559Z,7.15
2023-11-28T10:37:41.516Z,6.90
2023-11-28T10:40:46.149Z,14.40
2023-11-28T10:43:50.049Z,8.05
2023-11-28T10:47:00.354Z,6.80
2023-11-28T10:50:06.986Z,5.45
2023-11-28T10:53:13.908Z,10.60
2023-11-28T10:56:22.400Z,6.63
2023-11-28T10:59:55.881Z,6.45
2023-11-28T11:03:34.379Z,8.65
2023-11-28T11:07:04.465Z,5.68
2023-11-28T11:15:22.233Z,7.47
2023-11-28T11:19:56.620Z,5.95
2023-11-28T11:23:18.682Z,6.35
2023-11-28T11:26:36.742Z,6.50
2023-11-28T11:29:41.526Z,8.10
2023-11-28T11:32:46.118Z,7.93
2023-11-28T11:36:10.194Z,7.68
2023-11-28T11:39:20.143Z,13.52
2023-11-28T11:42:27.214Z,8.30
2023-11-28T11:45:34.413Z,7.00
2023-11-28T11:48:43.828Z,7.20
2023-11-28T11:51:47.937Z,6.15
2023-11-28T11:54:54.113Z,59.50
2023-11-28T11:57:58.014Z,7.72
2023-11-28T12:01:02.611Z,8.15
2023-11-28T12:04:06.224Z,6.32
2023-11-28T12:07:11.643Z,6.32
2023-11-28T12:10:16.669Z,7.00
2023-11-28T12:13:20.304Z,7.78
2023-11-28T12:16:27.557Z,6.75
2023-11-28T12:19:31.746Z,8.27
2023-11-28T12:22:35.835Z,7.78
2023-11-28T12:25:40.727Z,8.90
2023-11-28T12:28:45.020Z,8.75
2023-11-28T12:31:48.643Z,15.48
2023-11-28T12:34:52.447Z,8.00
2023-11-28T12:37:57.163Z,7.47
2023-11-28T12:41:12.548Z,7.60
2023-11-28T12:44:21.418Z,7.03
2023-11-28T12:47:25.046Z,7.40
2023-11-28T12:50:30.864Z,7.82
2023-11-28T12:53:36.821Z,8.85
2023-11-28T12:56:48.078Z,7.55
2023-11-28T12:59:52.256Z,8.30
2023-11-28T13:02:58.164Z,9.23
2023-11-28T13:06:02.000Z,7.63
2023-11-28T13:09:05.580Z,7.65
2023-11-28T13:12:11.820Z,6.10
2023-11-28T13:15:17.779Z,7.03
2023-11-28T13:18:24.331Z,7.37
2023-11-28T13:21:29.932Z,10.98
2023-11-28T13:24:33.941Z,7.93
2023-11-28T13:27:38.811Z,9.20
2023-11-28T13:30:44.455Z,7.32
2023-11-28T13:33:50.393Z,9.55
2023-11-28T13:36:53.981Z,114.13
2023-11-28T13:39:57.585Z,54.13
2023-11-28T13:43:02.607Z,11.35
2023-11-28T13:46:10.052Z,10.88
2023-11-28T13:49:13.583Z,8.98
2023-11-28T13:52:17.168Z,8.90
2023-11-28T13:55:20.869Z,6.28
2023-11-28T13:58:28.762Z,6.65
2023-11-28T14:01:32.409Z,7.38
2023-11-28T14:04:46.696Z,5.07
2023-11-28T14:07:55.514Z,4.82
2023-11-28T14:11:08.254Z,5.55
2023-11-28T14:14:16.694Z,5.10
2023-11-28T14:17:32.969Z,4.63
2023-11-28T14:20:37.749Z,5.20
2023-11-28T14:23:41.294Z,4.75
2023-11-28T14:26:51.929Z,5.82
2023-11-28T14:29:56.938Z,6.03
2023-11-28T14:33:00.448Z,5.70
2023-11-28T14:36:04.283Z,6.07
2023-11-28T14:39:09.446Z,6.28
2023-11-28T14:42:13.409Z,7.53
2023-11-28T14:45:18.479Z,8.43
2023-11-28T14:48:22.336Z,7.60
2023-11-28T14:51:26.065Z,7.20
2023-11-28T14:54:30.029Z,7.63
2023-11-28T14:57:33.663Z,7.85
2023-11-28T15:00:38.558Z,7.30
2023-11-28T15:03:42.971Z,7.00
2023-11-28T15:06:46.598Z,8.25
2023-11-28T15:09:50.249Z,7.10
2023-11-28T15:12:53.832Z,6.63
2023-11-28T15:15:58.711Z,7.70
2023-11-28T15:19:02.386Z,8.20
2023-11-28T15:22:08.457Z,8.35
2023-11-28T15:25:12.638Z,9.77
2023-11-28T15:28:17.143Z,8.90
2023-11-28T15:31:22.192Z,8.32
2023-11-28T15:34:28.089Z,9.10
2023-11-28T15:37:31.606Z,9.60
2023-11-28T15:40:35.913Z,9.70
2023-11-28T15:43:39.549Z,9.63
2023-11-28T15:46:46.814Z,9.73
2023-11-28T15:49:50.383Z,10.20
2023-11-28T15:52:53.962Z,9.90
2023-11-28T15:55:57.621Z,11.18
2023-11-28T15:59:01.344Z,13.20
2023-11-28T16:02:07.303Z,11.50
2023-11-28T16:05:11.669Z,29.83
2023-11-28T16:08:15.304Z,13.90
2023-11-28T16:11:19.169Z,205.98
2023-11-28T16:14:22.836Z,16.55
2023-11-28T16:17:27.864Z,13.45
2023-11-28T16:20:34.184Z,20.98
2023-11-28T16:23:38.078Z,13.02
2023-11-28T16:26:42.388Z,8.68
2023-11-28T16:29:46.713Z,12.50
2023-11-28T16:34:34.262Z,9.02
2023-11-28T16:37:40.353Z,9.93
2023-11-28T16:40:44.457Z,9.05
2023-11-28T16:43:48.063Z,9.02
2023-11-28T16:46:51.867Z,9.50
2023-11-28T16:49:56.963Z,10.63
2023-11-28T16:53:00.542Z,9.48
2023-11-28T16:56:06.757Z,11.15
2023-11-28T16:59:10.697Z,9.20
2023-11-28T17:02:14.311Z,8.63
2023-11-28T17:05:21.714Z,9.25
2023-11-28T17:08:25.570Z,10.43
2023-11-28T17:11:30.285Z,9.40
2023-11-28T17:14:33.968Z,8.48
2023-11-28T17:17:37.638Z,8.23
2023-11-28T17:20:43.039Z,8.95
2023-11-28T17:23:47.203Z,10.02
2023-11-28T17:26:50.662Z,8.70
2023-11-28T17:29:54.159Z,8.60
2023-11-28T17:32:57.673Z,7.95
2023-11-28T17:36:02.552Z,9.13
2023-11-28T17:39:07.338Z,8.68
2023-11-28T17:42:10.851Z,9.05
2023-11-28T17:45:14.757Z,10.50
2023-11-28T17:48:18.274Z,8.02
2023-11-28T17:51:23.978Z,8.00
2023-11-28T17:54:28.312Z,7.95
2023-11-28T17:57:31.782Z,8.95
2023-11-28T18:00:35.825Z,9.05
2023-11-28T18:03:39.940Z,8.75
2023-11-28T18:06:51.717Z,9.15
2023-11-28T18:09:55.493Z,9.18
2023-11-28T18:13:02.102Z,9.52
2023-11-28T18:16:06.504Z,10.48
2023-11-28T18:19:10.107Z,10.10
2023-11-28T18:22:17.044Z,12.77
2023-11-28T18:25:20.673Z,10.75
2023-11-28T18:28:24.214Z,12.07
2023-11-28T18:31:28.789Z,11.10
2023-11-28T18:34:32.195Z,11.65
2023-11-28T18:37:37.025Z,12.40
2023-11-28T18:40:42.216Z,13.00
2023-11-28T18:43:45.657Z,14.27
2023-11-28T18:46:49.645Z,14.93
2023-11-28T18:49:53.113Z,14.98
2023-11-28T18:52:58.061Z,15.65
2023-11-28T18:56:01.794Z,17.52
2023-11-28T18:59:05.335Z,18.52
2023-11-28T19:02:10.168Z,19.33
2023-11-28T19:05:15.018Z,20.48
2023-11-28T19:08:21.243Z,18.35
2023-11-28T19:11:25.404Z,17.75
2023-11-28T19:14:28.961Z,17.42
2023-11-28T19:17:32.550Z,18.35
2023-11-28T19:20:36.726Z,19.73
2023-11-28T19:23:42.163Z,18.52
2023-11-28T19:26:52.382Z,27.20
2023-11-28T19:29:56.293Z,17.52
2023-11-28T19:33:00.514Z,20.58
2023-11-28T19:36:06.156Z,22.20
2023-11-28T19:39:17.065Z,19.02
2023-11-28T19:42:21.207Z,20.98
2023-11-28T19:45:26.080Z,16.30
2023-11-28T19:48:30.603Z,17.00
2023-11-28T19:51:35.120Z,15.70
2023-11-28T19:54:40.273Z,16.60
2023-11-28T19:57:43.738Z,18.33
2023-11-28T20:00:50.257Z,17.60
2023-11-28T20:03:53.864Z,16.25
2023-11-28T20:06:57.523Z,18.13
2023-11-28T20:10:04.530Z,16.65
2023-11-28T20:13:08.223Z,20.93
2023-11-28T20:16:11.733Z,19.40
2023-11-28T20:19:15.249Z,21.17
2023-11-28T20:22:18.770Z,20.02
2023-11-28T20:25:23.926Z,22.98
2023-11-28T20:28:29.763Z,20.08
2023-11-28T20:31:33.303Z,20.23
2023-11-28T20:34:38.856Z,21.25
2023-11-28T20:37:42.866Z,20.80
2023-11-28T20:40:47.726Z,21.33
2023-11-28T20:43:51.362Z,22.60
2023-11-28T20:46:55.055Z,19.42
2023-11-28T20:49:58.787Z,21.73
2023-11-28T20:53:02.893Z,26.52
2023-11-28T20:56:09.515Z,22.20
2023-11-28T20:59:14.575Z,16.93
2023-11-28T21:02:19.008Z,20.85
2023-11-28T21:05:23.290Z,20.23
2023-11-28T21:08:26.794Z,20.77
2023-11-28T21:11:31.796Z,20.85
2023-11-28T21:14:35.371Z,20.92
2023-11-28T21:17:39.215Z,18.40
2023-11-28T21:20:43.689Z,18.13
2023-11-28T21:23:47.396Z,17.63
2023-11-28T21:26:52.377Z,16.88
2023-11-28T21:29:55.934Z,17.63
2023-11-28T21:32:59.391Z,16.65
2023-11-28T21:36:09.069Z,14.43
2023-11-28T21:39:13.556Z,14.95
2023-11-28T21:42:19.976Z,16.60
2023-11-28T21:45:23.450Z,20.30
2023-11-28T21:48:28.487Z,14.98
2023-11-28T21:51:32.557Z,20.88
2023-11-28T21:54:36.147Z,14.73
2023-11-28T21:57:41.459Z,13.15
2023-11-28T22:00:44.907Z,17.40
2023-11-28T22:03:48.527Z,15.70
2023-11-28T22:06:52.103Z,14.98
2023-11-28T22:09:55.557Z,15.38
2023-11-28T22:13:00.689Z,14.23
2023-11-28T22:16:04.615Z,8.48
2023-11-28T22:19:08.806Z,9.85
2023-11-28T22:22:12.326Z,12.20
2023-11-28T22:25:15.953Z,15.43
2023-11-28T22:28:20.755Z,13.00
2023-11-28T22:34:33.856Z,14.13
2023-11-28T22:37:37.453Z,15.93
2023-11-28T22:40:40.954Z,14.70
2023-11-28T22:43:44.591Z,13.00
2023-11-28T22:46:48.117Z,17.48
2023-11-28T22:49:53.373Z,19.85
2023-11-28T22:52:57.687Z,13.95
2023-11-28T22:56:01.201Z,16.23
2023-11-28T22:59:04.960Z,11.98
2023-11-28T23:02:08.537Z,13.70
2023-11-28T23:05:13.710Z,11.52
2023-11-28T23:08:17.209Z,14.00
2023-11-28T23:11:20.712Z,15.70
2023-11-28T23:14:24.330Z,15.40
2023-11-28T23:17:28.018Z,13.30
2023-11-28T23:20:32.963Z,13.40
2023-11-28T23:23:37.516Z,22.95
2023-11-28T23:26:43.684Z,17.33
2023-11-28T23:29:47.273Z,12.68
2023-11-28T23:32:51.314Z,12.52
2023-11-28T23:35:56.289Z,16.08
2023-11-28T23:38:59.971Z,16.55
2023-11-28T23:42:03.474Z,13.30
2023-11-28T23:45:07.865Z,14.85
2023-11-28T23:48:11.854Z,12.73
2023-11-28T23:51:16.767Z,14.93
2023-11-28T23:54:20.209Z,13.70
2023-11-28T23:57:23.762Z,14.68
